Time;durP1;ratioP1;P1;durP2;ratioP2;P2;SDS_P1;SDS_P2;PMS_P1;PMS_P2;Temp;Humidity;BMP_temperature;BMP_pressure;BME280_temperature;BME280_humidity;BME280_pressure;Samples;Min_cycle;Max_cycle;Signal;HPM_P1;HPM_P2
2022/07/14 00:00:54;;;;;;;2.13;1.40;;;;;;;24.53;42.97;100311.03;4971567;28;20223;-69
2022/07/14 00:03:19;;;;;;;7.20;1.50;;;;;;;24.53;42.29;100315.47;4984970;28;20192;-69
2022/07/14 00:05:45;;;;;;;2.77;1.43;;;;;;;24.55;42.21;100310.84;4977506;28;20238;-69
2022/07/14 00:08:11;;;;;;;2.67;1.47;;;;;;;24.56;41.89;100315.13;4990734;28;20254;-68
2022/07/14 00:10:36;;;;;;;1.20;1.10;;;;;;;24.62;42.12;100310.03;4969608;28;20702;-69
2022/07/14 00:13:02;;;;;;;1.23;1.13;;;;;;;24.72;42.71;100299.31;4986940;28;20176;-68
2022/07/14 00:15:30;;;;;;;1.53;1.33;;;;;;;24.80;43.04;100316.88;4975811;28;20188;-68
2022/07/14 00:17:58;;;;;;;2.47;1.40;;;;;;;24.74;44.92;100313.09;4974780;28;20179;-68
2022/07/14 00:20:24;;;;;;;2.03;1.70;;;;;;;24.67;45.74;100327.94;4966719;28;20664;-69
2022/07/14 00:22:49;;;;;;;5.33;1.80;;;;;;;24.46;46.82;100324.03;4988072;28;20263;-68
2022/07/14 00:25:15;;;;;;;3.13;1.70;;;;;;;24.49;47.36;100320.25;4974380;28;20195;-69
2022/07/14 00:27:40;;;;;;;3.20;1.63;;;;;;;24.43;48.70;100319.09;4975574;28;20652;-69
2022/07/14 00:30:06;;;;;;;3.33;1.83;;;;;;;24.38;48.71;100312.75;4963740;28;20662;-69
2022/07/14 00:32:33;;;;;;;4.13;1.70;;;;;;;24.31;48.74;100310.78;4990288;28;20184;-68
2022/07/14 00:34:59;;;;;;;2.47;1.97;;;;;;;24.28;49.96;100324.25;4965736;28;20184;-68
2022/07/14 00:37:25;;;;;;;3.17;1.77;;;;;;;24.25;49.53;100310.63;4968411;28;20211;-68
2022/07/14 00:39:56;;;;;;;2.63;1.90;;;;;;;24.16;49.90;100312.44;4975080;28;20188;-68
2022/07/14 00:42:39;;;;;;;3.83;1.93;;;;;;;23.97;50.89;100309.19;4980726;28;20278;-68
2022/07/14 00:45:10;;;;;;;2.43;1.70;;;;;;;23.97;51.11;100300.50;4990223;28;20202;-69
2022/07/14 00:47:36;;;;;;;2.30;1.90;;;;;;;23.93;51.22;100302.66;4975531;28;20185;-69
2022/07/14 00:50:04;;;;;;;2.03;1.70;;;;;;;23.89;51.37;100292.59;4975858;28;20298;-69
2022/07/14 00:52:29;;;;;;;4.77;2.20;;;;;;;23.67;52.09;100289.66;4980671;28;20551;-69
2022/07/14 00:54:56;;;;;;;7.67;1.77;;;;;;;23.40;53.48;100283.75;4985925;28;20650;-69
2022/07/14 00:57:22;;;;;;;2.37;1.80;;;;;;;23.32;53.99;100288.97;4975514;28;20192;-68
2022/07/14 00:59:48;;;;;;;4.87;1.90;;;;;;;23.11;54.61;100286.78;4975008;28;20211;-68
2022/07/14 01:02:15;;;;;;;4.33;2.00;;;;;;;23.21;54.22;100283.06;4965403;28;20219;-68
2022/07/14 01:04:40;;;;;;;5.37;1.80;;;;;;;23.20;54.33;100288.50;4975300;28;20253;-68
2022/07/14 01:07:06;;;;;;;3.63;1.80;;;;;;;23.11;54.94;100284.16;4974862;28;20649;-69
2022/07/14 01:09:31;;;;;;;3.20;1.77;;;;;;;23.09;55.09;100283.53;4972787;28;20200;-69
2022/07/14 01:11:56;;;;;;;2.33;1.80;;;;;;;23.05;55.04;100286.47;4978816;28;20227;-68
2022/07/14 01:14:22;;;;;;;2.63;1.70;;;;;;;22.96;55.33;100279.56;4973730;28;20250;-69
2022/07/14 01:16:52;;;;;;;3.77;1.90;;;;;;;22.94;55.80;100285.94;4973726;28;20180;-69
2022/07/14 01:19:17;;;;;;;3.93;2.10;;;;;;;22.89;56.20;100283.81;4961538;28;20643;-68
2022/07/14 01:21:43;;;;;;;2.27;1.67;;;;;;;22.73;56.53;100282.75;4977451;28;20231;-68
2022/07/14 01:24:08;;;;;;;5.47;2.10;;;;;;;22.66;56.55;100281.78;4973386;28;20245;-68
2022/07/14 01:26:34;;;;;;;3.00;1.90;;;;;;;22.61;56.48;100281.41;4975171;28;20188;-68
2022/07/14 01:28:59;;;;;;;2.33;1.70;;;;;;;22.51;56.66;100278.09;4972801;28;20200;-68
2022/07/14 01:31:24;;;;;;;2.77;1.73;;;;;;;22.39;57.25;100283.63;4963675;28;20238;-67
2022/07/14 01:33:50;;;;;;;3.70;2.13;;;;;;;22.31;57.78;100287.97;4965427;28;20189;-66
2022/07/14 01:36:15;;;;;;;2.20;2.00;;;;;;;22.22;57.93;100280.06;4970379;28;20199;-66
2022/07/14 01:38:40;;;;;;;2.30;1.77;;;;;;;22.15;58.35;100270.34;4972401;28;20263;-67
2022/07/14 01:41:06;;;;;;;3.50;1.87;;;;;;;22.11;58.16;100264.59;4966338;28;20232;-66
2022/07/14 01:43:35;;;;;;;4.17;1.67;;;;;;;21.99;58.59;100265.84;4959539;28;20196;-68
2022/07/14 01:46:00;;;;;;;2.83;1.70;;;;;;;21.90;58.92;100272.81;4969763;28;20227;-69
2022/07/14 01:48:25;;;;;;;1.77;1.60;;;;;;;21.76;59.52;100274.19;4972680;28;20208;-68
2022/07/14 01:50:51;;;;;;;2.27;1.70;;;;;;;21.65;60.62;100274.44;4968799;28;20679;-68
2022/07/14 01:53:16;;;;;;;3.00;1.60;;;;;;;21.60;60.68;100265.22;4988866;28;20180;-68
2022/07/14 01:55:43;;;;;;;1.50;1.40;;;;;;;21.40;61.72;100277.63;4974129;28;20204;-68
2022/07/14 01:58:08;;;;;;;2.00;1.80;;;;;;;21.37;61.90;100266.66;4972660;28;20180;-69
2022/07/14 02:00:34;;;;;;;3.93;1.60;;;;;;;21.42;61.26;100256.56;4967805;28;20246;-68
2022/07/14 02:02:59;;;;;;;1.83;1.60;;;;;;;21.37;60.91;100259.63;4965292;28;20181;-68
2022/07/14 02:05:24;;;;;;;2.50;1.80;;;;;;;21.31;60.96;100257.63;4970787;28;20283;-68
2022/07/14 02:07:50;;;;;;;2.03;1.63;;;;;;;21.25;61.33;100259.03;4988607;28;20228;-68
2022/07/14 02:12:59;;;;;;;1.77;1.67;;;;;;;21.22;61.89;100255.88;4984730;28;20207;-69
2022/07/14 02:15:25;;;;;;;3.33;1.77;;;;;;;21.14;62.52;100259.25;4973819;28;20196;-69
2022/07/14 02:17:50;;;;;;;1.80;1.70;;;;;;;21.14;62.46;100248.78;4972609;28;20182;-69
2022/07/14 02:20:15;;;;;;;1.70;1.50;;;;;;;21.08;62.52;100244.97;4964529;28;20216;-69
2022/07/14 02:22:41;;;;;;;3.10;1.90;;;;;;;21.04;62.55;100248.84;4972671;28;20686;-69
2022/07/14 02:25:07;;;;;;;3.47;2.13;;;;;;;20.96;63.00;100246.16;4972581;28;20184;-69
2022/07/14 02:27:33;;;;;;;5.83;2.03;;;;;;;20.90;63.11;100244.13;4988530;28;20184;-69
2022/07/14 02:29:59;;;;;;;2.00;1.77;;;;;;;20.85;63.00;100262.91;4963438;28;20201;-69
2022/07/14 02:32:24;;;;;;;1.80;1.47;;;;;;;20.76;63.52;100258.53;4976152;28;20228;-69
2022/07/14 02:34:50;;;;;;;3.57;1.53;;;;;;;20.71;63.53;100256.34;4958559;28;20191;-69
2022/07/14 02:37:15;;;;;;;2.03;1.43;;;;;;;20.71;63.39;100258.97;4988433;28;20627;-69
2022/07/14 02:39:40;;;;;;;5.00;2.07;;;;;;;20.64;63.45;100263.94;4971549;28;20192;-68
2022/07/14 02:42:06;;;;;;;1.53;1.43;;;;;;;20.60;64.03;100269.59;4964856;28;20246;-69
2022/07/14 02:44:31;;;;;;;1.77;1.60;;;;;;;20.58;63.72;100272.34;4973351;28;20617;-69
2022/07/14 02:46:56;;;;;;;4.20;1.83;;;;;;;20.38;64.45;100274.22;4973387;28;20180;-68
2022/07/14 02:49:21;;;;;;;1.80;1.40;;;;;;;20.30;65.53;100266.25;4971531;28;20210;-69
2022/07/14 02:51:47;;;;;;;1.83;1.40;;;;;;;20.04;67.10;100268.69;4976532;28;20693;-69
2022/07/14 02:54:12;;;;;;;2.23;1.80;;;;;;;20.09;66.69;100263.84;4988348;28;20267;-69
2022/07/14 02:56:37;;;;;;;8.53;1.87;;;;;;;20.08;66.58;100270.03;4972124;28;20172;-68
2022/07/14 02:59:07;;;;;;;2.13;1.63;;;;;;;19.94;66.59;100259.06;4972682;28;20184;-68
2022/07/14 03:01:32;;;;;;;2.57;1.80;;;;;;;20.00;67.03;100262.94;4955421;28;20285;-68
2022/07/14 03:03:57;;;;;;;2.63;1.73;;;;;;;20.03;66.37;100249.56;4987817;28;20266;-70
2022/07/14 03:06:22;;;;;;;2.50;1.57;;;;;;;20.01;66.22;100243.69;4973345;28;20295;-66
2022/07/14 03:08:48;;;;;;;3.63;1.90;;;;;;;20.00;67.07;100244.66;4971847;28;20674;-58
2022/07/14 03:11:13;;;;;;;1.60;1.50;;;;;;;19.93;68.00;100248.78;4964349;28;20227;-58
2022/07/14 03:13:40;;;;;;;2.07;1.60;;;;;;;20.10;66.97;100250.66;4990161;28;20597;-57
2022/07/14 03:16:12;;;;;;;4.10;1.63;;;;;;;20.27;66.13;100240.44;4971572;28;20232;-57
2022/07/14 03:18:39;;;;;;;2.07;1.83;;;;;;;20.50;64.78;100238.25;4984460;28;20661;-57
2022/07/14 03:21:11;;;;;;;2.10;1.60;;;;;;;20.65;63.45;100238.59;4974021;28;20223;-57
2022/07/14 03:23:37;;;;;;;2.13;1.53;;;;;;;20.72;63.82;100262.41;4992732;28;20176;-59
2022/07/14 03:26:03;;;;;;;2.27;1.57;;;;;;;20.74;63.96;100274.38;4982501;28;20665;-58
2022/07/14 03:28:29;;;;;;;4.73;1.77;;;;;;;20.59;63.96;100270.53;4973589;28;20176;-57
2022/07/14 03:30:56;;;;;;;6.57;2.50;;;;;;;20.59;63.62;100257.47;4946363;28;20230;-58
2022/07/14 03:33:24;;;;;;;6.67;2.00;;;;;;;20.43;64.20;100242.44;4958808;28;20195;-58
2022/07/14 03:35:50;;;;;;;5.70;2.00;;;;;;;20.19;64.96;100238.53;4968293;28;20194;-57
2022/07/14 03:38:16;;;;;;;4.50;1.73;;;;;;;20.43;64.46;100250.28;4976258;28;20259;-58
2022/07/14 03:40:42;;;;;;;5.10;1.67;;;;;;;20.70;63.60;100253.84;4967632;28;20258;-57
2022/07/14 03:43:07;;;;;;;3.63;2.00;;;;;;;20.84;63.50;100255.16;4986420;28;20616;-57
2022/07/14 03:45:33;;;;;;;7.63;1.87;;;;;;;20.82;63.29;100250.09;4974904;28;20243;-57
2022/07/14 03:47:58;;;;;;;2.13;1.87;;;;;;;20.82;62.70;100255.31;4975723;28;20557;-58
2022/07/14 03:50:24;;;;;;;4.50;1.90;;;;;;;20.78;62.33;100260.03;4968620;28;20286;-57
2022/07/14 03:52:50;;;;;;;4.17;1.80;;;;;;;20.94;61.93;100269.84;4988586;28;20188;-57
2022/07/14 03:55:15;;;;;;;2.10;1.90;;;;;;;20.93;62.17;100264.75;4976398;28;20176;-58
2022/07/14 03:57:41;;;;;;;2.50;2.27;;;;;;;20.74;62.69;100255.22;4976488;28;20184;-58
2022/07/14 04:00:08;;;;;;;7.10;2.00;;;;;;;20.33;65.12;100234.66;4965697;28;20196;-58
2022/07/14 04:02:33;;;;;;;3.37;1.80;;;;;;;20.27;64.55;100214.34;4974547;28;20231;-58
2022/07/14 04:04:58;;;;;;;1.67;1.57;;;;;;;20.30;65.66;100214.03;4976040;28;20192;-57
2022/07/14 04:07:24;;;;;;;2.97;1.90;;;;;;;20.46;65.08;100213.41;4975532;28;20282;-57
2022/07/14 04:09:50;;;;;;;3.37;1.80;;;;;;;20.50;64.60;100212.13;4975208;28;20219;-57
2022/07/14 04:12:16;;;;;;;3.87;1.70;;;;;;;20.79;63.07;100209.41;4980508;28;20322;-57
2022/07/14 04:14:41;;;;;;;2.10;1.53;;;;;;;21.03;63.30;100212.41;4975589;28;20188;-58
2022/07/14 04:17:06;;;;;;;4.87;2.17;;;;;;;21.16;62.32;100225.94;4975330;28;20623;-57
2022/07/14 04:19:31;;;;;;;2.53;1.97;;;;;;;21.27;61.46;100219.63;4975088;28;20181;-58
2022/07/14 04:21:57;;;;;;;5.40;2.40;;;;;;;21.45;60.23;100224.88;4979764;28;20603;-59
2022/07/14 04:24:22;;;;;;;3.10;1.70;;;;;;;21.37;60.89;100225.63;4972483;28;20180;-57
2022/07/14 04:26:48;;;;;;;3.47;1.90;;;;;;;21.53;61.22;100224.09;4956796;28;20293;-58
2022/07/14 04:29:13;;;;;;;6.20;1.77;;;;;;;21.48;61.31;100218.50;4973060;28;20220;-57
2022/07/14 04:31:38;;;;;;;2.63;1.90;;;;;;;21.46;60.76;100221.28;4967164;28;20237;-57
2022/07/14 04:34:04;;;;;;;3.03;1.70;;;;;;;21.55;61.95;100233.44;4966392;28;20193;-57
2022/07/14 04:36:30;;;;;;;4.00;2.17;;;;;;;21.56;61.53;100227.25;4973438;28;20199;-57
2022/07/14 04:38:56;;;;;;;3.87;2.27;;;;;;;21.47;61.48;100232.56;4989768;28;20530;-57
2022/07/14 04:41:23;;;;;;;4.37;1.83;;;;;;;21.47;61.36;100224.69;4975138;28;20239;-57
2022/07/14 04:43:48;;;;;;;5.33;2.37;;;;;;;21.38;61.49;100226.44;4980350;28;20210;-58
2022/07/14 04:46:13;;;;;;;4.90;1.93;;;;;;;21.24;62.47;100227.78;4974602;28;20255;-58
2022/07/14 04:54:06;;;;;;;3.20;1.70;;;;;;;21.48;62.08;100235.00;4977445;28;20205;-57
2022/07/14 04:56:32;;;;;;;4.00;1.80;;;;;;;21.50;63.49;100232.25;4974725;28;20626;-57
2022/07/14 04:58:57;;;;;;;2.87;1.87;;;;;;;21.48;62.91;100228.97;4973279;28;20184;-57
2022/07/14 05:01:23;;;;;;;3.17;1.90;;;;;;;21.37;63.54;100216.94;4974624;28;20289;-58
2022/07/14 05:03:48;;;;;;;4.40;2.17;;;;;;;21.71;61.96;100218.88;4979422;28;20641;-58
2022/07/14 05:06:13;;;;;;;3.43;2.00;;;;;;;21.86;60.52;100229.59;4974522;28;20188;-58
2022/07/14 05:08:38;;;;;;;3.83;1.80;;;;;;;22.02;60.03;100223.63;4973992;28;20184;-57
2022/07/14 05:11:04;;;;;;;3.70;2.23;;;;;;;21.80;60.75;100235.44;4972168;28;20277;-57
2022/07/14 05:13:30;;;;;;;3.10;2.00;;;;;;;21.96;61.00;100238.16;4973279;28;20188;-57
2022/07/14 05:15:55;;;;;;;8.53;1.80;;;;;;;22.16;60.93;100240.56;4973354;28;20536;-57
2022/07/14 05:18:21;;;;;;;4.70;1.93;;;;;;;22.10;61.05;100244.63;4974538;28;20550;-58
2022/07/14 05:20:46;;;;;;;8.17;2.00;;;;;;;22.32;59.75;100243.25;4969397;28;20223;-57
2022/07/14 05:23:11;;;;;;;5.13;2.20;;;;;;;22.52;59.46;100251.72;4978002;28;20355;-57
2022/07/14 05:25:39;;;;;;;5.73;2.50;;;;;;;22.78;58.32;100245.56;4974177;28;20183;-57
2022/07/14 05:28:04;;;;;;;4.33;1.97;;;;;;;23.12;58.70;100243.84;4972873;28;20195;-58
2022/07/14 05:30:29;;;;;;;2.77;2.10;;;;;;;23.45;58.05;100252.56;4965769;28;20613;-58
2022/07/14 05:32:57;;;;;;;8.23;2.40;;;;;;;23.69;56.06;100251.75;4983016;28;20184;-58
2022/07/14 05:35:22;;;;;;;8.77;2.77;;;;;;;23.82;56.37;100247.78;4963544;28;20188;-57
2022/07/14 05:37:48;;;;;;;11.47;2.50;;;;;;;23.66;55.69;100243.38;4974019;28;20642;-58
2022/07/14 05:40:13;;;;;;;2.87;2.10;;;;;;;23.71;54.44;100240.28;4964631;28;20200;-58
2022/07/14 05:42:38;;;;;;;8.07;2.00;;;;;;;23.60;53.86;100239.59;4987895;28;20282;-57
2022/07/14 05:45:04;;;;;;;3.80;2.40;;;;;;;23.51;54.92;100233.53;4988919;28;20184;-57
2022/07/14 05:47:30;;;;;;;4.53;1.80;;;;;;;23.90;55.03;100245.13;4972236;28;20632;-58
2022/07/14 05:49:55;;;;;;;3.80;2.23;;;;;;;24.20;53.65;100253.31;4988018;28;20980;-58
2022/07/14 05:52:20;;;;;;;5.10;2.10;;;;;;;23.84;53.80;100244.00;4963550;28;20294;-56
2022/07/14 05:54:46;;;;;;;6.20;2.50;;;;;;;23.91;55.55;100248.59;4973544;28;20270;-58
2022/07/14 05:57:13;;;;;;;5.70;2.33;;;;;;;23.98;53.30;100247.78;4972776;28;20599;-58
2022/07/14 05:59:39;;;;;;;9.77;2.50;;;;;;;24.01;53.03;100252.72;4973337;28;20183;-58
2022/07/14 06:02:04;;;;;;;4.83;2.20;;;;;;;24.26;52.22;100249.19;4961524;28;20231;-59
2022/07/14 06:04:29;;;;;;;6.47;2.40;;;;;;;24.39;50.94;100253.91;4956401;28;20240;-58
2022/07/14 06:06:55;;;;;;;4.33;2.43;;;;;;;24.63;50.27;100238.03;4973075;28;20231;-58
2022/07/14 06:09:21;;;;;;;4.83;2.30;;;;;;;24.76;50.14;100232.22;4970332;28;20228;-58
2022/07/14 06:11:47;;;;;;;3.70;2.20;;;;;;;24.90;48.57;100233.28;4967325;28;20219;-58
2022/07/14 06:14:14;;;;;;;5.20;2.20;;;;;;;24.85;48.55;100240.06;4985127;28;20190;-58
2022/07/14 06:16:40;;;;;;;4.00;2.47;;;;;;;24.70;49.18;100240.81;4972930;28;20267;-58
2022/07/14 06:19:05;;;;;;;4.77;2.70;;;;;;;24.67;48.91;100235.88;4966477;28;20184;-58
2022/07/14 06:21:31;;;;;;;4.70;2.23;;;;;;;24.45;49.55;100238.28;4969817;28;20249;-58
2022/07/14 06:23:57;;;;;;;6.83;2.30;;;;;;;24.37;49.91;100230.41;4972648;28;20266;-59
2022/07/14 06:26:22;;;;;;;8.03;2.47;;;;;;;24.61;49.78;100237.38;4973143;28;20699;-58
2022/07/14 06:28:48;;;;;;;4.63;2.57;;;;;;;25.04;48.29;100236.97;4987166;28;20212;-58
2022/07/14 06:31:13;;;;;;;8.63;2.53;;;;;;;25.20;47.50;100237.84;4969004;28;20223;-58
2022/07/14 06:33:39;;;;;;;6.13;2.27;;;;;;;25.30;46.67;100227.91;4977787;28;20198;-58
2022/07/14 06:36:06;;;;;;;2.60;2.15;;;;;;;25.62;46.41;100236.53;4972342;28;20657;-58
2022/07/14 06:38:32;;;;;;;3.22;2.20;;;;;;;25.88;46.32;100227.41;4989854;28;20192;-60
2022/07/14 06:40:57;;;;;;;9.20;2.40;;;;;;;26.24;44.00;100224.84;4968571;28;20277;-58
2022/07/14 06:43:22;;;;;;;6.97;1.98;;;;;;;25.75;44.75;100222.72;4980237;28;20179;-58
2022/07/14 06:45:48;;;;;;;7.55;2.13;;;;;;;25.27;45.85;100226.44;4971968;28;20258;-58
2022/07/14 06:48:13;;;;;;;5.28;1.90;;;;;;;25.27;45.73;100218.53;4973129;28;20188;-59
2022/07/14 06:50:39;;;;;;;3.65;2.35;;;;;;;25.14;46.75;100221.78;4964047;28;20239;-56
2022/07/14 06:53:04;;;;;;;4.60;2.03;;;;;;;25.69;45.15;100224.28;4965542;28;20180;-55
2022/07/14 06:55:29;;;;;;;10.50;2.65;;;;;;;26.13;43.84;100211.34;4980126;28;20264;-55
2022/07/14 06:57:55;;;;;;;4.50;2.00;;;;;;;26.30;43.44;100215.41;4971233;28;20188;-56
2022/07/14 07:00:20;;;;;;;4.63;2.45;;;;;;;26.10;43.38;100226.50;4959724;28;20294;-57
2022/07/14 07:02:47;;;;;;;5.18;2.25;;;;;;;25.80;44.33;100224.84;5000126;28;20180;-56
2022/07/14 07:07:58;;;;;;;4.50;2.30;;;;;;;25.68;45.21;100227.91;4980547;28;20677;-58
2022/07/14 07:10:24;;;;;;;9.38;2.38;;;;;;;25.81;45.01;100227.28;4969174;28;20234;-58
2022/07/14 07:12:49;;;;;;;3.65;2.63;;;;;;;25.98;43.55;100224.50;4992609;28;20207;-56
2022/07/14 07:15:15;;;;;;;7.38;2.97;;;;;;;26.29;43.90;100220.88;4973895;28;20259;-57
2022/07/14 07:17:40;;;;;;;8.82;2.63;;;;;;;26.28;43.51;100224.50;4987239;28;20710;-56
2022/07/14 07:20:06;;;;;;;6.07;2.50;;;;;;;26.21;44.58;100229.66;4964486;28;20192;-57
2022/07/14 07:22:32;;;;;;;5.43;2.30;;;;;;;26.29;43.99;100226.94;4998084;28;20207;-57
2022/07/14 07:24:57;;;;;;;4.07;2.63;;;;;;;26.49;43.17;100221.09;4985133;28;20180;-57
2022/07/14 07:27:22;;;;;;;9.60;2.97;;;;;;;26.60;44.04;100214.53;4987243;28;20319;-56
2022/07/14 07:29:47;;;;;;;4.85;2.20;;;;;;;26.22;44.45;100223.41;4990998;28;20286;-57
2022/07/14 07:32:13;;;;;;;5.38;2.28;;;;;;;26.12;43.96;100225.50;4972782;28;20289;-56
2022/07/14 07:34:38;;;;;;;4.68;2.58;;;;;;;26.20;43.94;100225.44;4978076;28;20186;-57
2022/07/14 07:37:06;;;;;;;6.90;2.72;;;;;;;26.27;43.59;100215.75;4984908;28;20277;-56
2022/07/14 07:39:31;;;;;;;4.63;2.80;;;;;;;26.16;44.27;100216.22;4977053;28;20208;-57
2022/07/14 07:42:00;;;;;;;11.90;3.20;;;;;;;26.50;43.12;100223.53;4968243;28;20227;-57
2022/07/14 07:44:26;;;;;;;5.78;2.72;;;;;;;26.74;41.94;100217.16;4974720;28;20279;-57
2022/07/14 07:46:52;;;;;;;3.47;2.05;;;;;;;27.20;40.53;100213.31;4976075;28;20268;-57
2022/07/14 07:49:18;;;;;;;3.22;2.35;;;;;;;27.02;41.46;100208.47;4975545;28;20275;-57
2022/07/14 07:51:43;;;;;;;6.32;2.17;;;;;;;26.72;41.11;100208.56;4978592;28;20685;-56
2022/07/14 07:54:08;;;;;;;2.60;2.40;;;;;;;26.77;40.83;100213.31;4978647;28;20191;-57
2022/07/14 07:56:34;;;;;;;3.72;2.30;;;;;;;27.17;40.30;100211.03;4990974;28;20192;-57
2022/07/14 07:58:59;;;;;;;4.53;2.35;;;;;;;27.27;39.59;100207.28;4974582;28;20195;-56
2022/07/14 08:01:24;;;;;;;3.33;2.67;;;;;;;27.19;40.11;100206.38;4983895;28;20322;-56
2022/07/14 08:03:49;;;;;;;4.25;2.80;;;;;;;27.36;41.04;100206.94;4980234;28;20255;-56
2022/07/14 08:06:18;;;;;;;2.95;2.30;;;;;;;27.16;41.64;100208.59;4975285;28;20188;-57
2022/07/14 08:08:43;;;;;;;4.60;2.50;;;;;;;27.21;41.90;100204.38;4975372;28;20192;-57
2022/07/14 08:11:08;;;;;;;5.40;2.50;;;;;;;27.57;41.22;100196.53;4963601;28;20231;-58
2022/07/14 08:13:34;;;;;;;5.57;2.20;;;;;;;27.94;39.97;100199.81;4973387;28;20208;-57
2022/07/14 08:15:59;;;;;;;4.25;2.28;;;;;;;28.25;39.47;100198.53;4971984;28;20180;-58
2022/07/14 08:18:24;;;;;;;3.20;2.53;;;;;;;28.44;39.06;100195.16;4988390;28;20650;-57
2022/07/14 08:20:52;;;;;;;8.32;3.22;;;;;;;28.13;39.80;100206.22;4969690;28;20231;-58
2022/07/14 08:23:17;;;;;;;5.72;2.45;;;;;;;27.95;41.19;100201.44;4978252;28;20295;-57
2022/07/14 08:25:42;;;;;;;6.10;3.00;;;;;;;27.26;42.38;100211.72;4983160;28;20678;-57
2022/07/14 08:28:08;;;;;;;4.07;2.90;;;;;;;27.26;42.13;100201.16;4977695;28;20195;-57
2022/07/14 08:30:33;;;;;;;4.97;2.38;;;;;;;27.27;42.65;100212.56;4969479;28;20231;-58
2022/07/14 08:32:58;;;;;;;5.20;2.40;;;;;;;27.62;41.88;100205.50;4983336;28;20191;-58
2022/07/14 08:35:25;;;;;;;5.72;2.58;;;;;;;28.97;38.93;100198.94;4963597;28;20278;-58
2022/07/14 08:37:52;;;;;;;4.97;2.53;;;;;;;31.44;34.45;100209.56;4990008;28;20353;-57
2022/07/14 08:40:21;;;;;;;7.25;2.75;;;;;;;32.78;31.40;100202.69;4971378;28;20670;-58
2022/07/14 08:42:49;;;;;;;4.00;2.25;;;;;;;31.36;33.01;100204.56;4993342;28;20189;-59
2022/07/14 08:45:17;;;;;;;3.17;2.55;;;;;;;30.02;35.50;100208.00;4978054;28;20238;-57
2022/07/14 08:47:44;;;;;;;7.00;2.42;;;;;;;29.39;36.51;100204.84;4977683;28;20245;-58
2022/07/14 08:50:12;;;;;;;5.00;2.67;;;;;;;29.38;37.42;100202.41;4965175;28;20718;-58
2022/07/14 08:52:38;;;;;;;13.00;3.00;;;;;;;29.90;36.88;100190.09;4977905;28;20217;-58
2022/07/14 08:55:07;;;;;;;5.78;2.60;;;;;;;30.52;35.73;100191.47;4982469;28;20535;-58
2022/07/14 08:57:33;;;;;;;6.90;3.05;;;;;;;30.02;36.04;100197.38;4990907;28;20187;-58
2022/07/14 08:59:59;;;;;;;3.38;2.45;;;;;;;29.29;37.41;100194.69;4971100;28;20183;-58
2022/07/14 09:02:24;;;;;;;6.50;2.90;;;;;;;28.36;39.43;100190.03;4962103;28;20695;-57
2022/07/14 09:04:49;;;;;;;3.72;2.90;;;;;;;27.98;40.65;100193.94;4970512;28;20210;-57
2022/07/14 09:07:36;;;;;;;3.45;2.42;;;;;;;28.13;41.26;100200.94;4976451;28;20232;-57
2022/07/14 09:10:13;;;;;;;4.82;2.22;;;;;;;28.79;39.47;100189.75;4974790;28;20207;-58
2022/07/14 09:12:41;;;;;;;9.38;2.53;;;;;;;30.00;37.38;100191.50;4941928;28;20300;-58
2022/07/14 09:17:55;;;;;;;4.82;2.60;;;;;;;30.61;35.68;100173.47;4960465;28;20195;-58
2022/07/14 09:20:22;;;;;;;6.85;2.60;;;;;;;30.38;35.80;100182.75;4946312;28;20189;-58
2022/07/14 09:22:53;;;;;;;10.27;2.78;;;;;;;30.93;34.95;100187.53;4978796;28;20608;-59
2022/07/14 09:25:18;;;;;;;2.85;2.55;;;;;;;32.60;32.26;100176.09;4975452;28;20195;-58
2022/07/14 09:27:47;;;;;;;4.45;2.60;;;;;;;31.20;33.53;100182.03;4979158;28;20180;-58
2022/07/14 09:30:13;;;;;;;4.13;2.53;;;;;;;31.07;34.52;100180.28;4965201;28;20212;-58
2022/07/14 09:32:46;;;;;;;5.13;2.50;;;;;;;32.76;31.16;100180.81;4974351;28;20187;-58
2022/07/14 09:35:15;;;;;;;7.97;3.10;;;;;;;33.30;30.52;100178.06;4971725;28;20188;-58
2022/07/14 09:37:42;;;;;;;4.72;2.70;;;;;;;32.64;31.04;100190.59;4971947;28;20195;-58
2022/07/14 09:40:15;;;;;;;7.32;2.50;;;;;;;32.29;32.13;100178.78;4963682;28;20195;-58
2022/07/14 09:43:03;;;;;;;2.72;2.53;;;;;;;32.88;31.26;100182.69;4988160;28;20184;-58
2022/07/14 09:45:37;;;;;;;5.72;2.33;;;;;;;33.61;29.38;100176.06;4969835;28;20188;-59
2022/07/14 09:48:08;;;;;;;10.95;2.55;;;;;;;34.64;28.30;100174.53;4972214;28;20192;-59
2022/07/14 09:50:37;;;;;;;3.00;2.30;;;;;;;34.25;29.34;100171.72;4978970;28;20253;-59
2022/07/14 09:53:19;;;;;;;2.42;2.20;;;;;;;33.73;29.18;100162.72;4977040;28;20188;-59
2022/07/14 09:55:59;;;;;;;4.68;2.53;;;;;;;33.16;29.92;100163.34;4989289;28;20196;-59
2022/07/14 09:58:27;;;;;;;2.88;2.40;;;;;;;32.45;31.87;100147.25;4972485;28;20200;-59
2022/07/14 10:01:08;;;;;;;6.82;2.40;;;;;;;34.17;29.89;100148.09;4970185;28;20262;-59
2022/07/14 10:03:35;;;;;;;12.80;3.00;;;;;;;35.47;27.41;100149.06;4977976;28;20183;-59
2022/07/14 10:06:02;;;;;;;4.45;2.10;;;;;;;36.93;25.79;100145.69;4974674;28;20224;-59
2022/07/14 10:08:34;;;;;;;4.20;2.67;;;;;;;36.60;25.66;100149.44;4973709;28;20224;-59
2022/07/14 10:11:01;;;;;;;2.50;2.30;;;;;;;37.03;25.90;100142.25;4969338;28;20325;-59
2022/07/14 10:13:27;;;;;;;6.18;2.58;;;;;;;35.78;27.02;100155.59;4981318;28;20187;-59
2022/07/14 10:15:55;;;;;;;5.75;2.67;;;;;;;35.09;28.24;100142.66;4977313;28;20291;-59
2022/07/14 10:18:22;;;;;;;2.92;2.28;;;;;;;37.55;25.77;100151.38;4981789;28;20191;-59
2022/07/14 10:20:52;;;;;;;5.38;2.40;;;;;;;38.37;24.14;100142.72;4966249;28;20223;-59
2022/07/14 10:23:19;;;;;;;5.68;2.30;;;;;;;37.63;24.08;100153.56;4972759;28;20547;-58
2022/07/14 10:25:50;;;;;;;3.15;2.45;;;;;;;35.47;26.88;100141.84;4972877;28;20236;-58
2022/07/14 10:28:17;;;;;;;2.75;2.20;;;;;;;36.03;26.90;100138.22;4987132;28;20179;-58
2022/07/14 10:31:17;;;;;;;5.53;2.45;;;;;;;37.92;24.46;100139.72;4964580;28;20236;-59
2022/07/14 10:33:52;;;;;;;3.63;2.30;;;;;;;38.07;23.95;100138.09;4962853;28;20255;-58
2022/07/14 10:36:32;;;;;;;4.97;2.33;;;;;;;37.58;24.68;100142.78;4968003;28;20207;-59
2022/07/14 10:39:27;;;;;;;4.95;2.47;;;;;;;37.25;24.60;100138.59;4987687;28;20230;-58
2022/07/14 10:42:10;;;;;;;7.75;2.70;;;;;;;37.84;24.15;100137.53;4964721;28;20306;-59
2022/07/14 10:44:38;;;;;;;6.78;2.67;;;;;;;36.75;25.22;100132.69;4967795;28;20191;-58
2022/07/14 10:47:13;;;;;;;2.88;2.67;;;;;;;35.45;26.85;100129.78;4972505;28;20188;-58
2022/07/14 10:50:12;;;;;;;3.65;2.40;;;;;;;33.73;30.25;100114.69;4973068;28;20244;-59
2022/07/14 10:52:49;;;;;;;2.80;2.50;;;;;;;32.55;31.99;100104.91;4953811;28;20228;-59
2022/07/14 10:55:32;;;;;;;3.25;2.75;;;;;;;31.44;33.50;100118.41;4980040;28;20646;-57
2022/07/14 10:58:00;;;;;;;9.25;3.00;;;;;;;30.03;36.09;100112.34;4981285;28;20278;-58
2022/07/14 11:00:43;;;;;;;5.93;3.25;;;;;;;29.45;37.65;100113.94;4959930;28;20981;-58
2022/07/14 11:03:25;;;;;;;5.30;3.03;;;;;;;29.28;38.79;100112.75;4978144;28;20184;-58
2022/07/14 11:06:09;;;;;;;5.18;3.03;;;;;;;29.06;38.59;100118.28;4969815;28;20723;-58
2022/07/14 11:08:40;;;;;;;7.22;3.10;;;;;;;28.98;38.92;100106.06;4967021;28;20318;-59
2022/07/14 11:11:16;;;;;;;4.30;2.80;;;;;;;28.70;39.43;100103.59;4964710;28;20250;-57
2022/07/14 11:14:13;;;;;;;6.38;3.20;;;;;;;28.39;40.02;100107.63;4975103;28;20667;-58
2022/07/14 11:16:44;;;;;;;5.70;3.28;;;;;;;28.15;40.63;100104.53;4958849;28;20358;-58
2022/07/14 11:19:21;;;;;;;4.43;3.00;;;;;;;28.36;40.89;100100.09;4981429;28;20184;-58
2022/07/14 11:22:09;;;;;;;5.38;2.47;;;;;;;28.81;39.35;100099.53;4955419;28;20229;-59
2022/07/14 11:24:35;;;;;;;4.00;2.95;;;;;;;28.70;39.24;100097.53;4986294;28;20222;-58
2022/07/14 11:27:38;;;;;;;4.70;3.28;;;;;;;29.26;38.89;100094.41;4989411;28;20266;-59
2022/07/14 11:30:28;;;;;;;6.13;2.53;;;;;;;29.54;38.21;100101.28;4974669;28;20200;-59
2022/07/14 11:33:12;;;;;;;4.40;2.90;;;;;;;30.16;36.32;100113.28;4931578;28;20612;-58
2022/07/14 11:38:39;;;;;;;4.03;2.60;;;;;;;29.82;37.33;100120.56;4972730;28;20183;-59
2022/07/14 11:41:13;;;;;;;7.15;3.03;;;;;;;29.75;37.21;100102.84;4969370;28;20564;-58
2022/07/14 11:43:41;;;;;;;5.82;2.63;;;;;;;29.72;37.22;100110.38;4977997;28;20188;-59